Terminal Aerodrome Forecast
Issued by NWS

Home | Current Version | Previous Version | Text Only | Print | Product List | Glossary On
Versions: 1 2 3 4 5 6 7 8 9 10 11 12 13 14 15 16 17
000
FTUS42 TJSJ 211700
TAFJBQ
TAF
TJBQ 211720Z 2118/2218 08014KT P6SM VCSH SCT022 BKN040
      TEMPO 2118/2120 07018G22KT SHRA SCT021 BKN030
     FM212230 11012KT P6SM VCSH SCT020 BKN040
     FM221630 08015G25KT P6SM VCTS SCT025CB SCT050=

USA.gov is the U.S. government's official web portal to all federal, state and local government web resources and services.